Time;durP1;ratioP1;P1;durP2;ratioP2;P2;SDS_P1;SDS_P2;PMS_P1;PMS_P2;Temp;Humidity;BMP_temperature;BMP_pressure;BME280_temperature;BME280_humidity;BME280_pressure;Samples;Min_cycle;Max_cycle;Signal;HPM_P1;HPM_P2
2022/07/12 00:01:59;;;;;;;2.80;0.65;;;16.50;71.50;;;;;;5008448;28;20092;-74
2022/07/12 00:04:26;;;;;;;4.50;0.60;;;16.50;71.60;;;;;;5015367;28;20053;-74
2022/07/12 00:06:54;;;;;;;4.97;0.63;;;16.50;71.70;;;;;;5017383;28;20053;-74
2022/07/12 00:09:21;;;;;;;2.92;0.63;;;16.50;71.60;;;;;;5014878;28;20041;-74
2022/07/12 00:11:49;;;;;;;3.53;0.80;;;16.40;71.60;;;;;;5016002;28;20653;-74
2022/07/12 00:14:16;;;;;;;4.25;0.50;;;16.40;72.60;;;;;;4994177;28;20033;-74
2022/07/12 00:16:44;;;;;;;2.92;0.90;;;16.40;72.50;;;;;;5015948;28;20049;-74
2022/07/12 00:19:11;;;;;;;3.90;0.65;;;16.30;73.30;;;;;;5014375;28;20145;-74
2022/07/12 00:21:38;;;;;;;1.88;0.90;;;16.30;73.10;;;;;;5013688;28;20052;-74
2022/07/12 00:24:05;;;;;;;4.85;0.77;;;16.30;74.00;;;;;;5015683;28;22096;-74
2022/07/12 00:26:32;;;;;;;1.55;0.73;;;16.30;74.40;;;;;;5009224;28;20086;-74
2022/07/12 00:28:59;;;;;;;5.28;0.88;;;16.20;74.10;;;;;;5016227;28;20045;-74
2022/07/12 00:31:26;;;;;;;1.67;0.52;;;16.20;74.60;;;;;;5001974;28;20064;-74
2022/07/12 00:33:53;;;;;;;5.50;1.08;;;16.20;75.50;;;;;;5013220;28;20124;-74
2022/07/12 00:36:21;;;;;;;2.28;0.50;;;16.10;74.90;;;;;;5016423;28;20416;-74
2022/07/12 00:38:48;;;;;;;3.58;0.88;;;16.10;74.80;;;;;;5016312;28;20057;-74
2022/07/12 00:41:15;;;;;;;2.55;0.60;;;16.10;75.10;;;;;;5016663;28;20053;-74
2022/07/12 00:43:43;;;;;;;4.63;0.82;;;16.10;75.50;;;;;;5016987;28;20076;-74
2022/07/12 00:46:10;;;;;;;3.75;0.80;;;16.00;75.10;;;;;;5017773;28;20235;-74
2022/07/12 00:48:37;;;;;;;4.50;0.60;;;16.00;75.50;;;;;;5031307;28;20048;-74
2022/07/12 00:51:05;;;;;;;1.38;0.80;;;16.00;75.70;;;;;;5026635;28;20136;-74
2022/07/12 00:53:32;;;;;;;5.07;1.10;;;15.90;76.10;;;;;;5016678;28;20034;-74
2022/07/12 00:55:59;;;;;;;2.30;0.80;;;15.90;76.00;;;;;;5016756;28;20037;-74
2022/07/12 00:58:28;;;;;;;4.38;0.43;;;15.80;76.40;;;;;;5018411;28;20102;-74
2022/07/12 01:00:57;;;;;;;3.45;1.40;;;15.80;76.90;;;;;;5013785;28;20064;-74
2022/07/12 01:03:26;;;;;;;4.57;0.82;;;15.80;77.10;;;;;;5007639;28;20053;-74
2022/07/12 01:05:54;;;;;;;5.20;0.77;;;15.80;76.90;;;;;;5014430;28;20604;-74
2022/07/12 01:08:21;;;;;;;1.27;0.63;;;15.80;77.20;;;;;;5025268;28;20485;-74
2022/07/12 01:10:51;;;;;;;3.45;0.70;;;15.70;77.10;;;;;;5018667;28;20053;-74
2022/07/12 01:13:19;;;;;;;2.15;0.75;;;15.60;77.40;;;;;;5018825;28;20050;-74
2022/07/12 01:15:48;;;;;;;3.72;0.80;;;15.60;77.70;;;;;;5034124;28;20068;-74
2022/07/12 01:18:16;;;;;;;4.07;1.33;;;15.50;78.10;;;;;;5018299;28;20485;-74
2022/07/12 01:20:45;;;;;;;5.93;0.65;;;15.40;78.30;;;;;;5018664;28;20060;-74
2022/07/12 01:23:14;;;;;;;2.30;0.80;;;15.50;78.20;;;;;;5016932;28;20159;-74
2022/07/12 01:25:41;;;;;;;3.83;0.75;;;15.40;77.80;;;;;;5003057;28;20424;-74
2022/07/12 01:28:08;;;;;;;1.90;0.57;;;15.40;77.40;;;;;;5018454;28;20595;-74
2022/07/12 01:30:35;;;;;;;5.03;0.70;;;15.40;77.70;;;;;;5020164;28;20046;-74
2022/07/12 01:33:04;;;;;;;4.03;0.82;;;15.30;77.50;;;;;;5020934;28;20041;-74
2022/07/12 01:35:31;;;;;;;3.30;1.17;;;15.40;77.30;;;;;;5017919;28;20045;-74
2022/07/12 01:37:58;;;;;;;1.92;0.65;;;15.40;77.30;;;;;;5018806;28;20516;-74
2022/07/12 01:40:26;;;;;;;3.45;0.75;;;15.30;77.10;;;;;;5018907;28;20045;-74
2022/07/12 01:42:54;;;;;;;2.92;0.80;;;15.30;76.90;;;;;;5015966;28;20053;-74
2022/07/12 01:45:22;;;;;;;4.43;0.40;;;15.30;77.30;;;;;;5021768;28;20057;-74
2022/07/12 01:47:49;;;;;;;3.05;0.50;;;15.40;77.50;;;;;;5018391;28;20497;-74
2022/07/12 01:50:16;;;;;;;3.50;0.40;;;15.40;78.10;;;;;;5019879;28;20037;-74
2022/07/12 01:52:44;;;;;;;2.05;0.40;;;15.40;77.90;;;;;;5031431;28;20050;-73
2022/07/12 01:55:12;;;;;;;0.98;0.40;;;15.40;78.50;;;;;;5019922;28;20492;-74
2022/07/12 01:57:46;;;;;;;1.65;0.50;;;15.30;78.70;;;;;;5020470;28;20037;-74
2022/07/12 02:00:14;;;;;;;3.90;0.70;;;15.30;78.50;;;;;;5020147;28;21982;-74
2022/07/12 02:02:43;;;;;;;1.45;0.65;;;15.30;78.80;;;;;;5021148;28;20517;-74
2022/07/12 02:05:10;;;;;;;3.38;0.47;;;15.20;78.70;;;;;;5013484;28;20045;-74
2022/07/12 02:07:39;;;;;;;5.10;0.40;;;15.20;78.50;;;;;;5028538;28;20040;-74
2022/07/12 02:10:07;;;;;;;1.85;0.50;;;15.20;79.60;;;;;;5017764;28;20045;-74
2022/07/12 02:12:36;;;;;;;1.52;0.70;;;15.20;79.30;;;;;;5001451;28;20065;-74
2022/07/12 02:15:08;;;;;;;3.53;0.90;;;15.20;79.40;;;;;;5002105;28;20056;-74
2022/07/12 02:17:35;;;;;;;1.35;0.55;;;15.20;79.30;;;;;;5017200;28;20416;-74
2022/07/12 02:20:03;;;;;;;2.45;0.40;;;15.20;79.20;;;;;;5009993;28;20053;-74
2022/07/12 02:22:30;;;;;;;2.53;0.38;;;15.20;79.50;;;;;;5019202;28;20045;-74
2022/07/12 02:24:57;;;;;;;1.27;0.40;;;15.20;79.40;;;;;;5016225;28;20045;-74
2022/07/12 02:27:24;;;;;;;3.70;0.40;;;15.20;79.50;;;;;;5000678;28;20203;-74
2022/07/12 02:29:51;;;;;;;1.10;0.30;;;15.10;80.00;;;;;;5017017;28;20057;-74
2022/07/12 02:32:18;;;;;;;2.25;0.52;;;15.10;80.40;;;;;;5015556;28;22248;-73
2022/07/12 02:34:45;;;;;;;5.60;0.65;;;15.10;81.10;;;;;;5012447;28;20516;-74
2022/07/12 02:37:14;;;;;;;2.15;0.55;;;15.10;80.60;;;;;;5017067;28;20594;-74
2022/07/12 02:39:42;;;;;;;3.15;0.50;;;15.10;79.90;;;;;;5032401;28;20061;-74
2022/07/12 02:42:09;;;;;;;4.75;0.40;;;15.10;79.70;;;;;;5031599;28;20053;-74
2022/07/12 02:44:36;;;;;;;4.40;0.88;;;15.10;79.90;;;;;;5017206;28;20064;-73
2022/07/12 02:47:03;;;;;;;1.50;0.30;;;15.10;79.50;;;;;;5016788;28;20037;-73
2022/07/12 02:49:30;;;;;;;1.42;0.40;;;15.10;79.70;;;;;;4994354;28;21605;-73
2022/07/12 02:51:57;;;;;;;1.77;0.40;;;15.10;79.40;;;;;;5020060;28;20034;-73
2022/07/12 02:54:24;;;;;;;2.97;0.38;;;15.00;79.60;;;;;;5028471;28;20116;-73
2022/07/12 02:56:51;;;;;;;2.35;0.40;;;15.00;79.30;;;;;;5013552;28;20503;-73
2022/07/12 02:59:19;;;;;;;1.85;0.35;;;15.00;79.20;;;;;;5014962;28;20076;-73
2022/07/12 03:01:46;;;;;;;1.33;0.40;;;15.00;79.10;;;;;;5018246;28;20045;-73
2022/07/12 03:04:13;;;;;;;2.35;0.43;;;15.00;79.30;;;;;;5017417;28;20099;-73
2022/07/12 03:06:40;;;;;;;3.08;0.40;;;15.00;79.00;;;;;;5018634;28;20038;-73
2022/07/12 03:09:07;;;;;;;1.20;0.65;;;15.00;80.10;;;;;;5016829;28;20597;-73
2022/07/12 03:11:34;;;;;;;2.67;0.47;;;14.90;80.20;;;;;;5015095;28;20535;-73
2022/07/12 03:14:02;;;;;;;2.97;0.40;;;15.00;80.60;;;;;;5020187;28;20034;-73
2022/07/12 03:16:29;;;;;;;1.98;0.50;;;15.00;81.00;;;;;;5017721;28;20038;-73
2022/07/12 03:18:56;;;;;;;5.28;0.43;;;14.90;81.10;;;;;;5015477;28;20095;-73
2022/07/12 03:21:23;;;;;;;3.75;0.63;;;14.90;80.30;;;;;;5019313;28;20045;-73
2022/07/12 03:23:50;;;;;;;3.22;0.50;;;14.90;80.70;;;;;;5017200;28;20072;-73
2022/07/12 03:26:17;;;;;;;4.22;0.43;;;14.90;81.30;;;;;;5018518;28;20033;-73
2022/07/12 03:28:44;;;;;;;3.33;0.45;;;14.90;81.20;;;;;;5018359;28;20493;-73
2022/07/12 03:31:11;;;;;;;1.95;0.40;;;14.90;81.80;;;;;;5027427;28;20489;-73
2022/07/12 03:33:39;;;;;;;2.55;0.55;;;14.90;81.90;;;;;;5017038;28;20585;-73
2022/07/12 03:36:08;;;;;;;1.98;0.40;;;14.90;82.40;;;;;;5021313;28;20411;-73
2022/07/12 03:38:36;;;;;;;4.25;0.35;;;14.90;82.60;;;;;;5018367;28;20042;-73
2022/07/12 03:41:03;;;;;;;2.65;0.50;;;15.00;82.40;;;;;;5016612;28;20052;-73
2022/07/12 03:43:31;;;;;;;2.88;0.68;;;15.00;82.60;;;;;;5017385;28;20236;-73
2022/07/12 03:45:58;;;;;;;3.45;0.60;;;15.10;82.20;;;;;;5016669;28;20574;-73
2022/07/12 03:48:25;;;;;;;6.30;0.77;;;15.10;82.10;;;;;;5019758;28;20080;-73
2022/07/12 03:50:52;;;;;;;5.05;0.40;;;15.10;81.90;;;;;;5017211;28;20041;-73
2022/07/12 03:53:19;;;;;;;3.47;0.55;;;15.10;82.60;;;;;;5021155;28;20471;-73
2022/07/12 03:55:46;;;;;;;2.67;0.40;;;15.10;82.50;;;;;;5016320;28;20046;-73
2022/07/12 03:58:13;;;;;;;2.97;0.40;;;15.20;82.60;;;;;;5017262;28;20108;-73
2022/07/12 04:00:42;;;;;;;1.73;0.43;;;15.20;83.20;;;;;;5013008;28;20050;-73
2022/07/12 04:03:10;;;;;;;1.55;0.43;;;15.20;83.30;;;;;;5017663;28;20038;-73
2022/07/12 04:05:38;;;;;;;2.85;0.60;;;15.30;83.00;;;;;;5017915;28;20099;-73
2022/07/12 04:08:05;;;;;;;3.83;0.43;;;15.30;82.70;;;;;;5019941;28;20044;-73
2022/07/12 04:10:32;;;;;;;3.45;0.68;;;15.40;82.50;;;;;;4996780;28;20049;-73
2022/07/12 04:12:59;;;;;;;1.35;0.30;;;15.40;82.60;;;;;;5017435;28;20034;-73
2022/07/12 04:15:26;;;;;;;3.08;0.40;;;15.40;83.40;;;;;;5014301;28;20052;-73
2022/07/12 04:17:53;;;;;;;5.05;0.47;;;15.50;83.20;;;;;;5005323;28;20524;-73
2022/07/12 04:20:21;;;;;;;4.47;0.63;;;15.60;82.90;;;;;;5015581;28;20064;-73
2022/07/12 04:22:48;;;;;;;3.85;0.55;;;15.60;82.90;;;;;;5019520;28;20060;-73
2022/07/12 04:25:16;;;;;;;8.70;1.30;;;15.70;82.50;;;;;;5012519;28;20045;-73
2022/07/12 04:27:43;;;;;;;3.55;0.88;;;15.70;82.20;;;;;;5031212;28;20045;-73
2022/07/12 04:30:10;;;;;;;8.57;2.10;;;15.80;81.70;;;;;;4996608;28;20081;-73
2022/07/12 04:32:37;;;;;;;5.15;0.45;;;15.90;81.90;;;;;;5019095;28;20049;-74
2022/07/12 04:35:05;;;;;;;2.35;0.43;;;16.00;81.10;;;;;;5010912;28;20049;-73
2022/07/12 04:37:32;;;;;;;2.47;0.30;;;16.00;81.10;;;;;;5016090;28;20068;-74
2022/07/12 04:39:59;;;;;;;4.03;0.50;;;16.10;80.80;;;;;;5008574;28;20051;-74
2022/07/12 04:42:26;;;;;;;6.68;0.60;;;16.20;80.70;;;;;;5001199;28;20106;-74
2022/07/12 04:44:53;;;;;;;3.85;0.68;;;16.30;80.40;;;;;;5018110;28;20405;-74
2022/07/12 04:47:20;;;;;;;3.70;0.25;;;16.40;80.30;;;;;;5021195;28;20049;-74
2022/07/12 04:49:47;;;;;;;3.38;0.65;;;16.40;79.90;;;;;;5014095;28;20052;-74
2022/07/12 04:52:14;;;;;;;4.10;0.80;;;16.50;79.50;;;;;;5019440;28;20045;-74
2022/07/12 04:54:42;;;;;;;2.38;0.50;;;16.60;79.70;;;;;;5019738;28;20045;-73
2022/07/12 04:57:09;;;;;;;2.72;0.40;;;16.60;79.40;;;;;;5021126;28;20045;-74
2022/07/12 04:59:36;;;;;;;2.50;0.30;;;16.80;79.40;;;;;;5013254;28;20136;-74
2022/07/12 05:02:03;;;;;;;5.15;0.30;;;16.90;78.90;;;;;;4989627;28;20052;-73
2022/07/12 05:04:33;;;;;;;7.00;0.40;;;17.00;79.30;;;;;;4964536;28;20736;-74
2022/07/12 05:07:01;;;;;;;3.70;0.50;;;17.20;78.30;;;;;;4983994;28;20650;-74
2022/07/12 05:09:28;;;;;;;2.83;0.28;;;17.30;77.90;;;;;;4970418;28;20056;-75
2022/07/12 05:11:55;;;;;;;2.00;0.50;;;17.50;77.30;;;;;;4962049;28;20111;-75
2022/07/12 05:14:22;;;;;;;1.83;0.93;;;17.60;76.20;;;;;;4972374;28;20052;-75
2022/07/12 05:16:49;;;;;;;2.63;0.40;;;17.70;75.70;;;;;;4973333;28;20052;-75
2022/07/12 05:19:16;;;;;;;2.17;0.22;;;17.90;75.30;;;;;;4982423;28;20066;-75
2022/07/12 05:21:43;;;;;;;4.00;0.30;;;18.00;75.00;;;;;;4983981;28;20100;-75
2022/07/12 05:24:10;;;;;;;4.43;0.40;;;18.20;74.20;;;;;;4983873;28;20045;-75
2022/07/12 05:26:38;;;;;;;1.88;0.32;;;18.30;73.10;;;;;;4981864;28;20500;-75
2022/07/12 05:29:05;;;;;;;1.95;0.20;;;18.50;72.80;;;;;;4971477;28;20618;-75
2022/07/12 05:31:32;;;;;;;1.25;0.20;;;18.70;72.20;;;;;;4969797;28;20447;-75
2022/07/12 05:34:00;;;;;;;1.25;0.20;;;18.80;71.60;;;;;;4980224;28;20033;-75
2022/07/12 05:36:28;;;;;;;1.10;0.20;;;18.90;71.10;;;;;;4956119;28;20524;-75
2022/07/12 05:38:55;;;;;;;2.28;0.20;;;19.00;70.30;;;;;;4961699;28;20046;-75
2022/07/12 05:41:22;;;;;;;3.45;0.20;;;19.20;70.20;;;;;;4981045;28;20710;-75
2022/07/12 05:43:49;;;;;;;3.13;0.63;;;19.30;69.80;;;;;;4982593;28;20115;-74
2022/07/12 05:46:16;;;;;;;2.78;0.32;;;19.50;69.10;;;;;;4983679;28;22113;-75
2022/07/12 05:48:43;;;;;;;1.15;0.10;;;19.60;68.60;;;;;;4971439;28;20059;-74
2022/07/12 05:53:56;;;;;;;0.88;0.20;;;19.80;66.20;;;;;;4982611;28;20048;-75
2022/07/12 05:56:23;;;;;;;0.88;0.30;;;19.80;65.90;;;;;;4983837;28;20093;-74
2022/07/12 05:58:50;;;;;;;2.22;0.10;;;20.00;65.60;;;;;;4980965;28;20068;-76
2022/07/12 06:01:18;;;;;;;1.05;0.10;;;20.20;66.50;;;;;;4979220;28;22209;-74
2022/07/12 06:03:45;;;;;;;1.05;0.10;;;20.30;64.70;;;;;;4967025;28;20046;-75
2022/07/12 06:06:12;;;;;;;0.63;0.10;;;20.30;64.30;;;;;;4980052;28;20049;-75
2022/07/12 06:08:39;;;;;;;1.45;0.10;;;20.40;64.00;;;;;;4988430;28;20068;-75
2022/07/12 06:11:06;;;;;;;0.85;0.10;;;20.40;63.60;;;;;;4979547;28;20082;-76
2022/07/12 06:13:33;;;;;;;3.70;0.10;;;20.70;63.90;;;;;;4970859;28;20048;-76
2022/07/12 06:16:01;;;;;;;2.42;0.20;;;20.80;62.20;;;;;;4981027;28;20053;-76
2022/07/12 06:18:28;;;;;;;1.98;0.45;;;20.90;62.30;;;;;;4954164;28;20193;-76
2022/07/12 06:20:55;;;;;;;0.57;0.10;;;20.90;61.30;;;;;;4981211;28;20183;-76
2022/07/12 06:23:22;;;;;;;1.65;0.20;;;20.90;61.40;;;;;;4981114;28;20049;-75
2022/07/12 06:25:49;;;;;;;3.45;0.10;;;20.90;61.20;;;;;;4982266;28;20744;-76
2022/07/12 06:28:22;;;;;;;1.50;0.10;;;21.20;61.00;;;;;;4966843;28;20697;-76
2022/07/12 06:30:49;;;;;;;1.58;0.10;;;21.30;60.30;;;;;;4977709;28;20037;-75
2022/07/12 06:33:16;;;;;;;0.52;0.00;;;21.40;60.30;;;;;;4957781;28;20769;-75
2022/07/12 06:35:43;;;;;;;2.78;0.10;;;21.40;59.80;;;;;;4967229;28;20717;-75
2022/07/12 06:38:10;;;;;;;4.50;0.30;;;21.50;60.20;;;;;;4961158;28;20060;-76
2022/07/12 06:40:37;;;;;;;1.58;0.10;;;21.50;59.00;;;;;;4967475;28;20681;-74
2022/07/12 06:43:12;;;;;;;2.50;0.17;;;20.90;59.90;;;;;;4980531;28;20059;-76
2022/07/12 06:45:40;;;;;;;6.50;0.47;;;20.80;61.00;;;;;;4991919;28;20182;-75
2022/07/12 06:48:07;;;;;;;6.07;0.22;;;21.20;60.70;;;;;;4967629;28;20045;-76
2022/07/12 06:50:34;;;;;;;1.05;0.20;;;21.50;59.90;;;;;;4963567;28;20056;-75
2022/07/12 06:53:02;;;;;;;3.15;0.17;;;21.70;59.60;;;;;;4976898;28;20050;-75
2022/07/12 06:55:30;;;;;;;6.85;0.20;;;21.80;59.50;;;;;;4986413;28;20049;-75
2022/07/12 06:57:57;;;;;;;2.83;0.10;;;21.70;58.70;;;;;;4967557;28;20546;-74
2022/07/12 07:00:24;;;;;;;2.13;0.10;;;21.70;58.60;;;;;;4974274;28;21222;-75
2022/07/12 07:02:51;;;;;;;3.63;0.40;;;21.70;58.50;;;;;;4986916;28;20058;-76
2022/07/12 07:05:19;;;;;;;0.68;0.10;;;21.90;58.00;;;;;;4974087;28;20179;-77
2022/07/12 07:07:46;;;;;;;2.67;0.20;;;22.00;58.30;;;;;;4969958;28;20212;-75
2022/07/12 07:10:14;;;;;;;2.17;0.10;;;22.20;58.10;;;;;;4970427;28;20045;-76
2022/07/12 07:12:41;;;;;;;2.17;0.10;;;22.40;57.80;;;;;;5015198;28;20504;-75
2022/07/12 07:15:09;;;;;;;4.35;0.25;;;22.60;57.30;;;;;;5013305;28;20044;-76
2022/07/12 07:17:36;;;;;;;3.58;0.10;;;22.30;56.40;;;;;;4968186;28;20119;-75
2022/07/12 07:20:04;;;;;;;1.27;0.17;;;22.30;57.50;;;;;;4965132;28;20052;-76
2022/07/12 07:22:31;;;;;;;3.25;0.20;;;22.50;57.30;;;;;;4980296;28;20064;-75
2022/07/12 07:24:58;;;;;;;3.10;0.17;;;22.80;56.90;;;;;;4978338;28;20547;-76
2022/07/12 07:27:25;;;;;;;2.08;0.20;;;23.00;56.40;;;;;;4978549;28;20789;-75
2022/07/12 07:32:37;;;;;;;5.85;0.40;;;22.10;56.90;;;;;;4976556;28;20045;-76
2022/07/12 07:35:07;;;;;;;1.98;0.10;;;21.70;57.00;;;;;;5003088;28;20037;-76
2022/07/12 07:37:35;;;;;;;4.63;0.28;;;22.00;57.10;;;;;;5008738;28;20045;-75
2022/07/12 07:40:02;;;;;;;1.80;0.10;;;22.50;56.20;;;;;;4988195;28;20057;-75
2022/07/12 07:42:29;;;;;;;0.60;0.10;;;22.20;56.00;;;;;;5006406;28;20178;-75
2022/07/12 07:44:56;;;;;;;2.53;0.10;;;21.90;56.50;;;;;;5003766;28;20046;-75
2022/07/12 07:47:48;;;;;;;1.95;0.10;;;22.30;56.70;;;;;;5006060;28;22466;-75
2022/07/12 07:50:35;;;;;;;2.05;0.30;;;22.60;56.30;;;;;;5019810;28;20037;-76
2022/07/12 07:53:04;;;;;;;0.68;0.20;;;22.80;55.40;;;;;;4981693;28;20049;-75
2022/07/12 07:55:31;;;;;;;0.52;0.10;;;22.80;55.40;;;;;;5007339;28;20091;-76
2022/07/12 07:58:00;;;;;;;1.45;0.10;;;23.00;55.00;;;;;;4992345;28;20084;-76
2022/07/12 08:00:27;;;;;;;2.40;0.10;;;22.90;54.00;;;;;;4983106;28;22576;-77
2022/07/12 08:02:56;;;;;;;2.17;0.40;;;23.20;54.20;;;;;;4974234;28;22011;-76
2022/07/12 08:05:23;;;;;;;0.38;0.00;;;23.20;53.20;;;;;;4980112;28;20057;-75
2022/07/12 08:07:54;;;;;;;4.78;0.30;;;23.60;53.70;;;;;;4993299;28;20489;-76
2022/07/12 08:10:22;;;;;;;0.85;0.40;;;23.90;53.50;;;;;;4979493;28;20053;-76
2022/07/12 08:12:49;;;;;;;5.60;0.10;;;23.90;52.80;;;;;;4963935;28;20837;-77
2022/07/12 08:15:16;;;;;;;0.82;0.10;;;23.60;52.50;;;;;;4981779;28;20084;-76
2022/07/12 08:17:43;;;;;;;1.33;0.20;;;22.90;53.00;;;;;;4978847;28;20049;-75
2022/07/12 08:20:18;;;;;;;0.70;0.10;;;22.70;53.50;;;;;;4978271;28;20076;-77
2022/07/12 08:23:06;;;;;;;2.47;0.13;;;22.90;54.30;;;;;;4979590;28;20055;-76
2022/07/12 08:25:33;;;;;;;1.02;0.10;;;23.20;53.70;;;;;;4979683;28;20111;-76
2022/07/12 08:28:00;;;;;;;1.38;0.43;;;22.90;53.50;;;;;;4983999;28;20515;-76
2022/07/12 08:30:27;;;;;;;1.40;0.10;;;22.70;54.30;;;;;;5000380;28;20081;-75
2022/07/12 08:32:57;;;;;;;2.65;0.10;;;22.90;53.80;;;;;;4981665;28;20127;-77
2022/07/12 08:35:24;;;;;;;4.07;0.32;;;23.40;53.70;;;;;;4979776;28;20061;-75
2022/07/12 08:37:51;;;;;;;0.35;0.10;;;23.60;52.80;;;;;;4977085;28;20523;-76
2022/07/12 08:40:20;;;;;;;4.80;0.20;;;23.40;52.50;;;;;;4979194;28;20060;-76
2022/07/12 08:42:47;;;;;;;0.85;0.10;;;22.90;52.70;;;;;;4977647;28;20101;-76
2022/07/12 08:45:15;;;;;;;6.28;0.20;;;22.80;53.10;;;;;;4964797;28;20057;-76
2022/07/12 08:47:42;;;;;;;6.68;0.20;;;23.10;52.90;;;;;;4982157;28;20049;-75
2022/07/12 08:50:28;;;;;;;1.45;0.10;;;23.20;52.80;;;;;;4973595;28;21036;-75
2022/07/12 08:52:55;;;;;;;2.45;0.15;;;23.20;52.90;;;;;;4963915;28;20050;-75
2022/07/12 08:55:34;;;;;;;1.40;0.10;;;23.40;53.40;;;;;;4977719;28;20041;-76
2022/07/12 08:58:05;;;;;;;1.05;0.00;;;23.40;52.40;;;;;;4980879;28;20822;-76
2022/07/12 09:00:32;;;;;;;12.77;0.28;;;23.70;51.90;;;;;;4964732;28;20148;-75
2022/07/12 09:03:02;;;;;;;1.45;0.30;;;23.80;51.80;;;;;;4968656;28;20515;-76
2022/07/12 09:05:33;;;;;;;2.92;0.10;;;23.70;51.80;;;;;;4971600;28;20058;-76
2022/07/12 09:08:08;;;;;;;2.23;0.10;;;23.90;51.70;;;;;;4980967;28;20135;-76
2022/07/12 09:11:02;;;;;;;3.03;0.45;;;24.20;51.20;;;;;;4964097;28;20060;-76
2022/07/12 09:13:52;;;;;;;1.40;0.10;;;23.70;52.00;;;;;;4981246;28;20049;-76
2022/07/12 09:16:29;;;;;;;1.05;0.35;;;23.30;52.50;;;;;;4979038;28;20050;-76
2022/07/12 09:19:16;;;;;;;3.78;0.10;;;23.40;52.50;;;;;;4979212;28;20554;-76
2022/07/12 09:21:49;;;;;;;0.77;0.10;;;23.60;51.80;;;;;;4977238;28;20089;-76
2022/07/12 09:24:17;;;;;;;2.60;0.10;;;23.80;50.90;;;;;;4970030;28;20058;-76
2022/07/12 09:26:45;;;;;;;1.90;0.20;;;24.10;51.20;;;;;;4979256;28;20139;-76
2022/07/12 09:29:13;;;;;;;0.20;0.10;;;24.10;51.30;;;;;;4989917;28;20052;-76
2022/07/12 09:37:25;;;;;;;1.98;0.30;;;23.00;53.10;;;;;;4974701;28;20049;-76
2022/07/12 09:39:53;;;;;;;1.55;0.32;;;22.60;54.00;;;;;;4980465;28;20045;-75
2022/07/12 09:42:21;;;;;;;3.25;0.20;;;22.50;54.20;;;;;;4968721;28;20050;-76
2022/07/12 09:44:56;;;;;;;0.40;0.22;;;22.60;54.00;;;;;;4982747;28;22121;-75
2022/07/12 09:47:25;;;;;;;1.95;0.20;;;22.60;54.20;;;;;;4981290;28;20050;-76
2022/07/12 09:49:53;;;;;;;1.50;0.10;;;22.50;53.80;;;;;;4997464;28;20116;-75
2022/07/12 09:52:27;;;;;;;1.85;0.10;;;22.40;54.10;;;;;;4959919;28;20056;-76
2022/07/12 09:54:55;;;;;;;0.40;0.25;;;22.50;53.80;;;;;;4982834;28;20532;-76
2022/07/12 09:57:42;;;;;;;0.82;0.20;;;23.10;53.60;;;;;;4980950;28;20705;-76
2022/07/12 10:00:11;;;;;;;2.05;0.30;;;23.40;52.70;;;;;;4978871;28;20087;-75
2022/07/12 10:02:40;;;;;;;8.38;1.48;;;23.80;52.30;;;;;;4992816;28;20059;-76
2022/07/12 10:05:09;;;;;;;1.92;0.10;;;23.50;51.60;;;;;;4997137;28;20037;-75
2022/07/12 10:07:38;;;;;;;2.42;0.10;;;23.30;51.70;;;;;;4960137;28;20150;-75
2022/07/12 10:10:06;;;;;;;0.40;0.10;;;23.20;51.90;;;;;;4979795;28;20052;-75
2022/07/12 10:12:34;;;;;;;0.40;0.10;;;23.40;52.30;;;;;;4979964;28;20119;-76
2022/07/12 10:15:14;;;;;;;2.60;0.10;;;23.80;51.60;;;;;;4982760;28;20041;-76
2022/07/12 10:17:51;;;;;;;1.40;0.10;;;24.00;49.30;;;;;;4980080;28;20057;-76
2022/07/12 10:20:23;;;;;;;1.63;0.10;;;24.00;48.40;;;;;;4985175;28;20057;-76
2022/07/12 10:23:19;;;;;;;0.85;0.35;;;23.60;49.00;;;;;;4982167;28;20045;-77
2022/07/12 10:25:49;;;;;;;2.42;0.10;;;23.50;50.10;;;;;;4984643;28;20053;-76
2022/07/12 10:28:17;;;;;;;1.77;0.10;;;23.80;50.20;;;;;;4979874;28;20133;-76
2022/07/12 10:30:47;;;;;;;1.33;0.10;;;23.90;50.90;;;;;;4952455;28;21197;-75
2022/07/12 10:33:19;;;;;;;1.33;0.10;;;24.10;49.70;;;;;;4977204;28;20596;-75
2022/07/12 10:36:05;;;;;;;0.30;0.10;;;24.00;47.10;;;;;;4976981;28;20045;-76
2022/07/12 10:38:40;;;;;;;0.75;0.10;;;23.80;48.50;;;;;;4980037;28;20797;-76
2022/07/12 10:41:18;;;;;;;0.30;0.00;;;24.00;49.30;;;;;;4976091;28;20167;-76
2022/07/12 10:44:04;;;;;;;6.15;0.35;;;24.00;48.20;;;;;;4983104;28;20057;-75
2022/07/12 10:46:36;;;;;;;7.20;0.25;;;23.90;48.10;;;;;;4981518;28;20096;-76
2022/07/12 10:49:25;;;;;;;1.83;0.10;;;24.20;48.20;;;;;;4983598;28;20056;-76
2022/07/12 10:52:10;;;;;;;1.60;0.10;;;24.30;47.50;;;;;;4975327;28;20106;-75
2022/07/12 10:54:39;;;;;;;1.52;0.10;;;24.40;48.20;;;;;;4987262;28;20235;-74
2022/07/12 10:57:07;;;;;;;1.67;0.40;;;24.10;48.00;;;;;;5001761;28;22431;-77
2022/07/12 10:59:36;;;;;;;0.55;0.10;;;23.80;48.70;;;;;;4988697;28;20151;-75
2022/07/12 11:02:05;;;;;;;4.25;0.55;;;23.80;49.00;;;;;;4981431;28;20650;-75
2022/07/12 11:04:48;;;;;;;1.10;0.20;;;23.70;48.10;;;;;;4987936;28;20772;-75
2022/07/12 11:07:18;;;;;;;1.27;0.20;;;23.70;48.80;;;;;;4976773;28;20057;-75
2022/07/12 11:09:50;;;;;;;1.17;0.10;;;23.70;49.80;;;;;;4965749;28;21974;-74
2022/07/12 11:12:18;;;;;;;1.92;0.20;;;24.00;50.00;;;;;;4979206;28;20206;-75
2022/07/12 11:14:51;;;;;;;14.88;5.40;;;23.80;49.70;;;;;;4981553;28;20729;-75
2022/07/12 11:17:30;;;;;;;3.58;0.30;;;23.50;49.80;;;;;;4979751;28;20041;-75
2022/07/12 11:20:11;;;;;;;8.45;0.40;;;23.40;51.20;;;;;;4980578;28;22068;-75
2022/07/12 11:22:42;;;;;;;23.05;2.90;;;22.90;52.20;;;;;;4976294;28;20065;-74
2022/07/12 11:25:11;;;;;;;27.13;2.22;;;22.50;52.80;;;;;;4982186;28;20204;-74
2022/07/12 11:27:39;;;;;;;8.95;0.60;;;22.50;53.20;;;;;;4995318;28;20410;-75
2022/07/12 11:30:08;;;;;;;7.85;0.50;;;22.30;54.20;;;;;;4967019;28;20041;-75
2022/07/12 11:32:40;;;;;;;2.70;0.10;;;22.30;54.30;;;;;;4992965;28;22530;-75
2022/07/12 11:35:25;;;;;;;1.05;0.50;;;22.30;55.30;;;;;;4975801;28;20045;-75
2022/07/12 11:37:57;;;;;;;0.85;0.10;;;22.30;55.60;;;;;;4978166;28;20716;-75
2022/07/12 11:40:29;;;;;;;1.05;0.15;;;22.40;56.20;;;;;;4967955;28;22726;-75
2022/07/12 11:42:58;;;;;;;;;;;22.30;56.20;;;;;;4977718;28;20064;-74
2022/07/12 11:45:30;;;;;;;0.20;0.10;;;22.40;56.50;;;;;;4974735;28;19936;-74
2022/07/12 11:48:02;;;;;;;;;;;22.50;56.80;;;;;;4976923;28;20049;-74
2022/07/12 11:50:30;;;;;;;3.28;0.10;;;22.50;56.70;;;;;;4977654;28;19929;-75
2022/07/12 11:53:02;;;;;;;3.72;0.52;;;22.60;57.30;;;;;;4965294;28;20519;-73
2022/07/12 11:55:30;;;;;;;1.80;0.10;;;22.80;57.70;;;;;;4972559;28;20068;-75
2022/07/12 11:58:05;;;;;;;1.67;0.50;;;23.10;57.90;;;;;;4975230;28;20049;-75
2022/07/12 12:00:32;;;;;;;1.60;0.15;;;23.00;54.90;;;;;;4971453;28;20061;-74
2022/07/12 12:02:59;;;;;;;2.38;0.25;;;23.20;55.80;;;;;;4961239;28;20056;-74
2022/07/12 12:05:27;;;;;;;1.08;0.10;;;23.20;54.70;;;;;;4973926;28;20045;-74
2022/07/12 12:07:54;;;;;;;0.47;0.22;;;23.30;54.90;;;;;;4980414;28;20050;-75
2022/07/12 12:10:21;;;;;;;1.30;0.10;;;23.50;55.30;;;;;;4962856;28;20088;-74
2022/07/12 12:12:56;;;;;;;0.80;0.10;;;23.60;55.40;;;;;;4965978;28;20045;-74
2022/07/12 12:15:31;;;;;;;0.85;0.30;;;23.70;55.00;;;;;;4982809;28;20049;-75
2022/07/12 12:18:06;;;;;;;1.13;0.20;;;23.90;55.50;;;;;;4978043;28;20056;-75
2022/07/12 12:20:35;;;;;;;1.08;0.10;;;24.00;53.10;;;;;;4976556;28;21572;-75
2022/07/12 12:23:14;;;;;;;0.50;0.10;;;24.10;53.90;;;;;;4979066;28;20835;-75
2022/07/12 12:25:41;;;;;;;2.05;0.17;;;24.10;54.10;;;;;;4978224;28;20037;-73
2022/07/12 12:28:08;;;;;;;0.40;0.10;;;23.90;52.80;;;;;;4969468;28;20037;-74
2022/07/12 12:30:55;;;;;;;0.63;0.20;;;23.80;54.00;;;;;;4977189;28;20072;-75
2022/07/12 12:33:43;;;;;;;1.55;0.10;;;24.10;54.40;;;;;;4976176;28;20049;-74
2022/07/12 12:36:15;;;;;;;1.77;0.10;;;24.10;54.70;;;;;;4975885;28;20203;-76
2022/07/12 12:38:43;;;;;;;0.20;0.10;;;23.90;51.40;;;;;;4981863;28;20102;-76
2022/07/12 12:41:12;;;;;;;2.30;0.25;;;23.90;52.60;;;;;;4975715;28;20551;-76
2022/07/12 12:43:39;;;;;;;1.33;0.13;;;23.80;50.70;;;;;;4979330;28;20065;-75
2022/07/12 12:46:07;;;;;;;0.93;0.10;;;23.80;50.30;;;;;;4966469;28;20058;-76
2022/07/12 12:48:35;;;;;;;1.65;0.10;;;24.10;49.90;;;;;;4981085;28;20041;-77
2022/07/12 12:51:02;;;;;;;4.13;0.25;;;24.40;48.80;;;;;;4968031;28;20131;-77
2022/07/12 12:53:29;;;;;;;2.45;0.20;;;24.20;48.60;;;;;;4978330;28;20061;-77
2022/07/12 12:55:56;;;;;;;2.85;0.10;;;24.30;48.50;;;;;;4980006;28;20053;-76
2022/07/12 12:58:25;;;;;;;2.35;0.10;;;24.70;48.10;;;;;;4980788;28;20708;-76
2022/07/12 13:00:54;;;;;;;1.95;0.10;;;24.50;47.90;;;;;;4992872;28;20063;-76
2022/07/12 13:03:24;;;;;;;2.55;0.10;;;24.30;47.70;;;;;;4976659;28;20102;-76
2022/07/12 13:05:52;;;;;;;0.55;0.08;;;24.10;48.20;;;;;;4995378;28;22181;-76
2022/07/12 13:08:19;;;;;;;1.33;0.10;;;24.00;48.20;;;;;;4982484;28;20057;-76
2022/07/12 13:11:18;;;;;;;13.02;1.02;;;23.90;48.30;;;;;;4983750;28;20413;-75